Time;durP1;ratioP1;P1;durP2;ratioP2;P2;SDS_P1;SDS_P2;PMS_P1;PMS_P2;Temp;Humidity;BMP_temperature;BMP_pressure;BME280_temperature;BME280_humidity;BME280_pressure;Samples;Min_cycle;Max_cycle;Signal;HPM_P1;HPM_P2
2024/01/06 00:00:52;;;;;;;35.53;20.08;;;;;;;;;;2065743;28;20396;-82
2024/01/06 00:02:13;;;;;;;37.80;18.98;;;;;;;;;;2066500;28;20042;-82
2024/01/06 00:03:34;;;;;;;34.03;18.42;;;;;;;;;;2062984;28;20038;-82
2024/01/06 00:04:56;;;;;;;33.38;18.33;;;;;;;;;;2060266;28;20042;-81
2024/01/06 00:06:17;;;;;;;34.13;17.20;;;;;;;;;;2066689;28;20042;-82
2024/01/06 00:07:38;;;;;;;36.38;17.92;;;;;;;;;;2062909;28;20442;-82
2024/01/06 00:08:59;;;;;;;28.60;16.17;;;;;;;;;;2068492;28;20033;-81
2024/01/06 00:10:20;;;;;;;32.15;17.50;;;;;;;;;;2074493;28;20061;-81
2024/01/06 00:11:41;;;;;;;30.05;16.70;;;;;;;;;;2074552;28;20025;-83
2024/01/06 00:13:02;;;;;;;29.48;15.98;;;;;;;;;;2063532;28;20502;-81
2024/01/06 00:14:22;;;;;;;35.13;17.30;;;;;;;;;;2067964;28;20041;-83
2024/01/06 00:15:43;;;;;;;30.92;16.38;;;;;;;;;;2071871;28;20124;-81
2024/01/06 00:17:04;;;;;;;33.08;17.77;;;;;;;;;;2060257;28;20514;-82
2024/01/06 00:18:27;;;;;;;30.67;16.70;;;;;;;;;;2068534;28;20038;-84
2024/01/06 00:19:51;;;;;;;31.20;17.20;;;;;;;;;;2062164;28;20041;-82
2024/01/06 00:21:11;;;;;;;36.17;19.58;;;;;;;;;;2064904;28;20101;-83
2024/01/06 00:22:32;;;;;;;33.47;17.73;;;;;;;;;;2069837;28;20456;-82
2024/01/06 00:23:55;;;;;;;32.40;16.55;;;;;;;;;;2060222;28;20034;-82
2024/01/06 00:25:16;;;;;;;31.40;16.70;;;;;;;;;;2060987;28;20034;-81
2024/01/06 00:26:37;;;;;;;33.55;17.90;;;;;;;;;;2066868;28;20077;-81
2024/01/06 00:27:58;;;;;;;34.70;19.20;;;;;;;;;;2064134;28;20035;-81
2024/01/06 00:29:19;;;;;;;33.00;18.88;;;;;;;;;;2065128;28;20034;-82
2024/01/06 00:30:40;;;;;;;29.88;17.15;;;;;;;;;;2058992;28;20045;-82
2024/01/06 00:32:01;;;;;;;27.38;16.77;;;;;;;;;;2067566;28;20045;-82
2024/01/06 00:33:22;;;;;;;33.03;17.40;;;;;;;;;;2072421;28;20077;-83
2024/01/06 00:34:42;;;;;;;36.40;18.17;;;;;;;;;;2062315;28;20391;-82
2024/01/06 00:36:04;;;;;;;30.58;17.23;;;;;;;;;;2068597;28;20049;-83
2024/01/06 00:37:25;;;;;;;29.40;18.47;;;;;;;;;;2060181;28;20062;-82
2024/01/06 00:38:46;;;;;;;32.88;16.77;;;;;;;;;;2069406;28;20443;-82
2024/01/06 00:40:07;;;;;;;28.55;16.65;;;;;;;;;;2068121;28;20030;-81
2024/01/06 00:41:27;;;;;;;34.85;17.75;;;;;;;;;;2061366;28;20026;-81
2024/01/06 00:42:48;;;;;;;34.35;17.80;;;;;;;;;;2066494;28;20458;-83
2024/01/06 00:44:09;;;;;;;34.20;17.25;;;;;;;;;;2072527;28;20042;-82
2024/01/06 00:45:31;;;;;;;30.63;17.98;;;;;;;;;;2073795;28;20034;-83
2024/01/06 00:46:52;;;;;;;31.27;17.27;;;;;;;;;;2072718;28;20096;-83
2024/01/06 00:48:13;;;;;;;35.10;18.33;;;;;;;;;;2069390;28;20462;-83
2024/01/06 00:49:34;;;;;;;35.70;17.17;;;;;;;;;;2065666;28;20540;-82
2024/01/06 00:50:55;;;;;;;30.15;17.30;;;;;;;;;;2067828;28;20034;-82
2024/01/06 00:52:16;;;;;;;29.90;17.27;;;;;;;;;;2072514;28;20030;-82
2024/01/06 00:53:37;;;;;;;34.47;17.63;;;;;;;;;;2071098;28;20033;-82
2024/01/06 00:54:58;;;;;;;30.33;18.15;;;;;;;;;;2070555;28;20065;-82
2024/01/06 00:56:18;;;;;;;34.80;18.08;;;;;;;;;;2062639;28;20053;-81
2024/01/06 00:57:39;;;;;;;33.00;17.48;;;;;;;;;;2069888;28;20026;-83
2024/01/06 00:59:00;;;;;;;31.23;17.63;;;;;;;;;;2063305;28;20287;-82
2024/01/06 01:00:22;;;;;;;39.92;18.90;;;;;;;;;;2069708;28;20053;-82
2024/01/06 01:01:43;;;;;;;29.50;16.25;;;;;;;;;;2062698;28;20506;-82
2024/01/06 01:03:04;;;;;;;36.42;17.98;;;;;;;;;;2068984;28;20038;-82
2024/01/06 01:04:25;;;;;;;34.38;18.60;;;;;;;;;;2067195;28;20034;-83
2024/01/06 01:05:46;;;;;;;29.38;16.38;;;;;;;;;;2067798;28;20041;-83
2024/01/06 01:07:07;;;;;;;32.85;16.92;;;;;;;;;;2060724;28;20043;-84
2024/01/06 01:08:28;;;;;;;31.65;18.13;;;;;;;;;;2064333;28;20039;-82
2024/01/06 01:09:49;;;;;;;28.65;16.85;;;;;;;;;;2067041;28;20034;-83
2024/01/06 01:11:11;;;;;;;33.53;17.48;;;;;;;;;;2063969;28;20033;-81
2024/01/06 01:12:32;;;;;;;31.02;20.17;;;;;;;;;;2071487;28;20030;-83
2024/01/06 01:13:53;;;;;;;30.50;16.60;;;;;;;;;;2067875;28;20034;-83
2024/01/06 01:15:14;;;;;;;30.25;17.27;;;;;;;;;;2070216;28;20088;-83
2024/01/06 01:16:34;;;;;;;28.45;16.30;;;;;;;;;;2063050;28;28780;-83
2024/01/06 01:17:55;;;;;;;27.95;16.67;;;;;;;;;;2055955;28;20023;-82
2024/01/06 01:19:20;;;;;;;31.35;16.90;;;;;;;;;;2068759;28;20026;-82
2024/01/06 01:20:43;;;;;;;29.77;16.95;;;;;;;;;;2065280;28;20026;-81
2024/01/06 01:22:04;;;;;;;27.48;16.30;;;;;;;;;;2062216;28;20034;-83
2024/01/06 01:23:25;;;;;;;28.40;14.90;;;;;;;;;;2070623;28;20041;-82
2024/01/06 01:24:48;;;;;;;29.38;16.08;;;;;;;;;;2069845;28;20022;-81
2024/01/06 01:26:09;;;;;;;28.85;15.85;;;;;;;;;;2065704;28;20058;-83
2024/01/06 01:27:30;;;;;;;30.17;15.95;;;;;;;;;;2061467;28;20038;-82
2024/01/06 01:28:50;;;;;;;27.17;15.93;;;;;;;;;;2061253;28;20038;-83
2024/01/06 01:30:12;;;;;;;26.50;15.45;;;;;;;;;;2067584;28;20034;-82
2024/01/06 01:31:32;;;;;;;26.83;15.40;;;;;;;;;;2065759;28;20034;-83
2024/01/06 01:32:53;;;;;;;27.98;15.30;;;;;;;;;;2066576;28;20022;-82
2024/01/06 01:34:14;;;;;;;28.60;15.55;;;;;;;;;;2064913;28;20506;-82
2024/01/06 01:35:35;;;;;;;30.05;16.27;;;;;;;;;;2058464;28;20034;-83
2024/01/06 01:36:56;;;;;;;27.10;16.05;;;;;;;;;;2066563;28;20033;-82
2024/01/06 01:38:17;;;;;;;29.65;15.18;;;;;;;;;;2070930;28;20022;-82
2024/01/06 01:39:38;;;;;;;25.85;16.27;;;;;;;;;;2063884;28;20419;-82
2024/01/06 01:40:59;;;;;;;27.63;16.50;;;;;;;;;;2059159;28;20038;-83
2024/01/06 01:42:20;;;;;;;26.70;15.40;;;;;;;;;;2059556;28;20049;-84
2024/01/06 01:43:41;;;;;;;29.20;16.10;;;;;;;;;;2068035;28;20518;-82
2024/01/06 01:45:02;;;;;;;30.65;16.70;;;;;;;;;;2062451;28;20112;-83
2024/01/06 01:46:27;;;;;;;25.88;15.15;;;;;;;;;;2070155;28;20034;-82
2024/01/06 01:47:48;;;;;;;28.92;16.35;;;;;;;;;;2061190;28;20034;-82
2024/01/06 01:49:09;;;;;;;28.50;14.88;;;;;;;;;;2065974;28;20444;-82
2024/01/06 01:50:30;;;;;;;30.48;16.98;;;;;;;;;;2055918;28;20026;-82
2024/01/06 01:51:52;;;;;;;28.40;16.27;;;;;;;;;;2070053;28;20409;-82
2024/01/06 01:53:13;;;;;;;29.92;15.55;;;;;;;;;;2062763;28;20026;-82
2024/01/06 01:54:35;;;;;;;27.63;15.30;;;;;;;;;;2065579;28;20054;-82
2024/01/06 01:55:55;;;;;;;26.60;14.73;;;;;;;;;;2060448;28;20038;-82
2024/01/06 01:57:17;;;;;;;27.33;16.55;;;;;;;;;;2061218;28;20423;-82
2024/01/06 01:58:38;;;;;;;26.55;15.68;;;;;;;;;;2056413;28;20039;-82
2024/01/06 02:00:00;;;;;;;29.85;16.90;;;;;;;;;;2064728;28;20324;-82
2024/01/06 02:01:21;;;;;;;30.55;16.10;;;;;;;;;;2067503;28;20037;-82
2024/01/06 02:02:42;;;;;;;26.73;14.93;;;;;;;;;;2071812;28;20100;-82
2024/01/06 02:04:03;;;;;;;29.00;16.23;;;;;;;;;;2067324;28;20042;-82
2024/01/06 02:05:24;;;;;;;25.35;14.75;;;;;;;;;;2063679;28;20038;-81
2024/01/06 02:06:45;;;;;;;27.90;15.65;;;;;;;;;;2059019;28;20038;-82
2024/01/06 02:08:05;;;;;;;26.23;15.38;;;;;;;;;;2065467;28;20108;-82
2024/01/06 02:09:29;;;;;;;26.48;14.95;;;;;;;;;;2070764;28;20092;-81
2024/01/06 02:10:50;;;;;;;24.48;13.88;;;;;;;;;;2071979;28;20080;-82
2024/01/06 02:12:11;;;;;;;24.25;13.63;;;;;;;;;;2068926;28;20026;-80
2024/01/06 02:13:35;;;;;;;21.90;13.23;;;;;;;;;;2062171;28;20038;-81
2024/01/06 02:14:56;;;;;;;21.63;13.68;;;;;;;;;;2062550;28;20042;-82
2024/01/06 02:16:17;;;;;;;23.70;14.82;;;;;;;;;;2060190;28;20030;-81
2024/01/06 02:17:39;;;;;;;21.40;14.35;;;;;;;;;;2069784;28;20049;-81
2024/01/06 02:19:00;;;;;;;23.88;14.15;;;;;;;;;;2069543;28;20034;-82
2024/01/06 02:20:23;;;;;;;23.70;14.13;;;;;;;;;;2064519;28;20069;-82
2024/01/06 02:21:48;;;;;;;23.50;13.85;;;;;;;;;;2065751;28;20516;-80
2024/01/06 02:23:09;;;;;;;22.15;14.18;;;;;;;;;;2072921;28;20042;-81
2024/01/06 02:24:30;;;;;;;18.83;12.77;;;;;;;;;;2073683;28;20030;-82
2024/01/06 02:25:51;;;;;;;18.77;13.10;;;;;;;;;;2070939;28;20580;-82
2024/01/06 02:27:11;;;;;;;18.73;13.10;;;;;;;;;;2063537;28;20049;-81
2024/01/06 02:28:32;;;;;;;20.52;12.68;;;;;;;;;;2061331;28;20421;-81
2024/01/06 02:29:53;;;;;;;20.90;13.25;;;;;;;;;;2062456;28;20034;-82
2024/01/06 02:31:14;;;;;;;22.73;13.88;;;;;;;;;;2067903;28;20022;-83
2024/01/06 02:32:35;;;;;;;18.05;12.77;;;;;;;;;;2064816;28;20431;-82
2024/01/06 02:33:56;;;;;;;16.88;12.73;;;;;;;;;;2069565;28;20462;-81
2024/01/06 02:35:17;;;;;;;19.35;12.63;;;;;;;;;;2066086;28;20029;-81
2024/01/06 02:36:38;;;;;;;18.05;12.05;;;;;;;;;;2069963;28;20026;-81
2024/01/06 02:37:59;;;;;;;19.58;13.50;;;;;;;;;;2060356;28;20085;-80
2024/01/06 02:39:20;;;;;;;18.75;12.73;;;;;;;;;;2067970;28;20038;-81
2024/01/06 02:40:42;;;;;;;17.95;12.48;;;;;;;;;;2072609;28;20502;-82
2024/01/06 02:42:03;;;;;;;20.75;13.30;;;;;;;;;;2064692;28;20062;-82
2024/01/06 02:43:24;;;;;;;21.92;13.07;;;;;;;;;;2072739;28;20034;-82
2024/01/06 02:44:45;;;;;;;19.05;13.45;;;;;;;;;;2071903;28;20033;-81
2024/01/06 02:46:06;;;;;;;17.85;12.45;;;;;;;;;;2060953;28;20030;-81
2024/01/06 02:47:27;;;;;;;18.98;12.32;;;;;;;;;;2069658;28;20046;-81
2024/01/06 02:48:48;;;;;;;20.02;13.02;;;;;;;;;;2065994;28;20027;-81
2024/01/06 02:50:09;;;;;;;16.35;12.05;;;;;;;;;;2068348;28;20038;-82
2024/01/06 02:51:30;;;;;;;19.77;13.52;;;;;;;;;;2073648;28;20022;-82
2024/01/06 02:52:51;;;;;;;19.48;12.90;;;;;;;;;;2063481;28;20026;-81
2024/01/06 02:54:12;;;;;;;21.58;13.10;;;;;;;;;;2063532;28;20034;-81
2024/01/06 02:55:33;;;;;;;22.55;13.98;;;;;;;;;;2066831;28;20040;-82
2024/01/06 02:56:53;;;;;;;21.17;13.23;;;;;;;;;;2069163;28;20041;-82
2024/01/06 02:58:14;;;;;;;19.45;13.50;;;;;;;;;;2062787;28;20112;-82
2024/01/06 02:59:35;;;;;;;20.83;13.95;;;;;;;;;;2069163;28;20037;-82
2024/01/06 03:00:56;;;;;;;18.42;12.65;;;;;;;;;;2064241;28;20084;-82
2024/01/06 03:02:17;;;;;;;18.65;13.65;;;;;;;;;;2062195;28;20034;-82
2024/01/06 03:03:38;;;;;;;20.42;14.20;;;;;;;;;;2060805;28;20041;-81
2024/01/06 03:04:59;;;;;;;20.65;13.32;;;;;;;;;;2063649;28;20038;-82
2024/01/06 03:06:20;;;;;;;21.10;13.75;;;;;;;;;;2060234;28;20317;-82
2024/01/06 03:07:41;;;;;;;19.10;13.30;;;;;;;;;;2059312;28;20042;-81
2024/01/06 03:09:02;;;;;;;19.98;13.07;;;;;;;;;;2069215;28;20064;-79
2024/01/06 03:10:23;;;;;;;18.60;13.15;;;;;;;;;;2070304;28;20069;-82
2024/01/06 03:11:44;;;;;;;19.60;13.80;;;;;;;;;;2072199;28;20037;-81
2024/01/06 03:13:05;;;;;;;14.75;11.35;;;;;;;;;;2068366;28;20035;-81
2024/01/06 03:14:26;;;;;;;18.10;13.80;;;;;;;;;;2064891;28;20035;-83
2024/01/06 03:15:47;;;;;;;14.73;11.40;;;;;;;;;;2060651;28;20027;-82
2024/01/06 03:17:10;;;;;;;16.50;11.85;;;;;;;;;;2065135;28;20042;-81
2024/01/06 03:18:31;;;;;;;16.45;12.13;;;;;;;;;;2061938;28;20027;-81
2024/01/06 03:19:52;;;;;;;14.57;11.07;;;;;;;;;;2070344;28;20026;-82
2024/01/06 03:21:19;;;;;;;15.40;10.95;;;;;;;;;;2063836;28;20038;-82
2024/01/06 03:22:40;;;;;;;17.50;12.00;;;;;;;;;;2071077;28;20578;-80
2024/01/06 03:24:01;;;;;;;16.90;11.55;;;;;;;;;;2063217;28;20030;-81
2024/01/06 03:25:22;;;;;;;14.13;11.93;;;;;;;;;;2062871;28;20069;-81
2024/01/06 03:26:43;;;;;;;15.00;11.13;;;;;;;;;;2070222;28;20041;-81
2024/01/06 03:28:04;;;;;;;16.80;12.70;;;;;;;;;;2064414;28;20038;-82
2024/01/06 03:29:25;;;;;;;16.52;12.35;;;;;;;;;;2070824;28;20026;-81
2024/01/06 03:30:46;;;;;;;15.52;12.05;;;;;;;;;;2072639;28;20034;-81
2024/01/06 03:32:07;;;;;;;16.17;12.82;;;;;;;;;;2063461;28;20030;-81
2024/01/06 03:33:27;;;;;;;17.30;12.75;;;;;;;;;;2069116;28;20033;-81
2024/01/06 03:34:48;;;;;;;16.30;11.82;;;;;;;;;;2062974;28;20495;-81
2024/01/06 03:36:12;;;;;;;17.15;11.73;;;;;;;;;;2063202;28;20030;-81
2024/01/06 03:37:33;;;;;;;17.42;11.40;;;;;;;;;;2062349;28;20042;-81
2024/01/06 03:38:54;;;;;;;16.90;12.48;;;;;;;;;;2074030;28;20049;-81
2024/01/06 03:40:14;;;;;;;15.82;12.70;;;;;;;;;;2067626;28;20035;-81
2024/01/06 03:41:35;;;;;;;17.00;12.63;;;;;;;;;;2071897;28;20065;-81
2024/01/06 03:42:56;;;;;;;20.17;13.40;;;;;;;;;;2063664;28;20038;-80
2024/01/06 03:44:17;;;;;;;20.88;13.55;;;;;;;;;;2060833;28;20058;-81
2024/01/06 03:45:38;;;;;;;17.95;12.57;;;;;;;;;;2065610;28;20030;-81
2024/01/06 03:46:59;;;;;;;23.23;14.05;;;;;;;;;;2061487;28;20034;-80
2024/01/06 03:48:20;;;;;;;20.33;13.93;;;;;;;;;;2069151;28;20081;-81
2024/01/06 03:49:41;;;;;;;20.25;14.30;;;;;;;;;;2063451;28;20057;-80
2024/01/06 03:51:02;;;;;;;18.55;13.00;;;;;;;;;;2069795;28;20118;-81
2024/01/06 03:52:23;;;;;;;19.23;13.55;;;;;;;;;;2061383;28;20027;-80
2024/01/06 03:53:44;;;;;;;18.42;12.60;;;;;;;;;;2062075;28;20172;-81
2024/01/06 03:55:05;;;;;;;20.35;14.40;;;;;;;;;;2059285;28;20049;-81
2024/01/06 03:56:26;;;;;;;17.33;13.90;;;;;;;;;;2070582;28;20033;-82
2024/01/06 03:57:47;;;;;;;20.55;13.93;;;;;;;;;;2062747;28;20121;-82
2024/01/06 03:59:08;;;;;;;19.58;13.65;;;;;;;;;;2070003;28;20034;-82
2024/01/06 04:00:29;;;;;;;20.05;14.20;;;;;;;;;;2063500;28;20085;-82
2024/01/06 04:01:50;;;;;;;17.88;13.50;;;;;;;;;;2064056;28;20034;-81
2024/01/06 04:03:10;;;;;;;20.90;13.15;;;;;;;;;;2062797;28;20039;-81
2024/01/06 04:04:31;;;;;;;21.23;13.10;;;;;;;;;;2063675;28;20045;-82
2024/01/06 04:05:52;;;;;;;21.50;14.65;;;;;;;;;;2063433;28;20422;-82
2024/01/06 04:07:13;;;;;;;18.20;12.82;;;;;;;;;;2062540;28;20502;-81
2024/01/06 04:08:35;;;;;;;22.30;13.93;;;;;;;;;;2054955;28;20047;-82
2024/01/06 04:09:56;;;;;;;20.10;12.80;;;;;;;;;;2054657;28;20518;-81
2024/01/06 04:11:17;;;;;;;20.63;13.30;;;;;;;;;;2055015;28;20038;-83
2024/01/06 04:12:39;;;;;;;19.55;13.43;;;;;;;;;;2054411;28;20422;-82
2024/01/06 04:14:00;;;;;;;19.02;13.25;;;;;;;;;;2064993;28;20029;-83
2024/01/06 04:15:21;;;;;;;19.85;13.05;;;;;;;;;;2052865;28;20475;-83
2024/01/06 04:16:42;;;;;;;21.17;13.40;;;;;;;;;;2062815;28;20042;-82
2024/01/06 04:18:04;;;;;;;20.65;13.88;;;;;;;;;;2054563;28;20037;-83
2024/01/06 04:19:25;;;;;;;21.48;14.05;;;;;;;;;;2060712;28;20046;-82
2024/01/06 04:20:46;;;;;;;20.73;13.65;;;;;;;;;;2054381;28;20039;-82
2024/01/06 04:22:06;;;;;;;21.20;14.00;;;;;;;;;;2054669;28;20035;-82
2024/01/06 04:23:27;;;;;;;17.67;11.93;;;;;;;;;;2062363;28;20418;-84
2024/01/06 04:24:48;;;;;;;18.45;13.43;;;;;;;;;;2054719;28;20032;-82
2024/01/06 04:26:09;;;;;;;20.33;13.40;;;;;;;;;;2063156;28;20018;-82
2024/01/06 04:27:31;;;;;;;21.75;13.73;;;;;;;;;;2056786;28;20490;-82
2024/01/06 04:28:51;;;;;;;20.40;13.55;;;;;;;;;;2061828;28;20316;-83
2024/01/06 04:30:13;;;;;;;22.73;12.60;;;;;;;;;;2060657;28;20027;-81
2024/01/06 04:31:33;;;;;;;18.25;13.15;;;;;;;;;;2057221;28;20037;-82
2024/01/06 04:32:54;;;;;;;19.65;13.98;;;;;;;;;;2062566;28;20045;-82
2024/01/06 04:34:16;;;;;;;22.38;13.75;;;;;;;;;;2056468;28;20035;-82
2024/01/06 04:35:37;;;;;;;24.02;14.02;;;;;;;;;;2064547;28;20057;-82
2024/01/06 04:36:57;;;;;;;19.55;12.13;;;;;;;;;;2059243;28;20379;-81
2024/01/06 04:38:18;;;;;;;26.42;13.82;;;;;;;;;;2051667;28;20113;-82
2024/01/06 04:39:39;;;;;;;21.33;13.98;;;;;;;;;;2055855;28;20105;-81
2024/01/06 04:41:00;;;;;;;21.27;14.52;;;;;;;;;;2057668;28;20043;-82
2024/01/06 04:42:22;;;;;;;19.67;12.95;;;;;;;;;;2066348;28;20034;-82
2024/01/06 04:43:43;;;;;;;22.75;13.20;;;;;;;;;;2060457;28;20027;-82
2024/01/06 04:45:04;;;;;;;17.95;12.57;;;;;;;;;;2053960;28;20074;-82
2024/01/06 04:46:25;;;;;;;22.52;13.68;;;;;;;;;;2056725;28;20035;-82
2024/01/06 04:47:46;;;;;;;22.63;13.63;;;;;;;;;;2065434;28;20086;-82
2024/01/06 04:49:07;;;;;;;20.13;13.10;;;;;;;;;;2057263;28;20035;-82
2024/01/06 04:50:28;;;;;;;22.23;13.40;;;;;;;;;;2057797;28;20026;-82
2024/01/06 04:51:48;;;;;;;19.38;13.25;;;;;;;;;;2058153;28;20495;-82
2024/01/06 04:53:09;;;;;;;20.63;12.93;;;;;;;;;;2056310;28;20039;-81
2024/01/06 04:54:30;;;;;;;21.52;13.55;;;;;;;;;;2061654;28;20486;-81
2024/01/06 04:55:51;;;;;;;22.83;13.93;;;;;;;;;;2055996;28;20173;-82
2024/01/06 04:57:12;;;;;;;23.95;14.20;;;;;;;;;;2051412;28;20085;-81
2024/01/06 04:58:34;;;;;;;19.38;13.15;;;;;;;;;;2063407;28;20042;-82
2024/01/06 04:59:55;;;;;;;19.02;13.65;;;;;;;;;;2055503;28;20038;-82
2024/01/06 05:01:16;;;;;;;21.70;13.85;;;;;;;;;;2061781;28;20100;-82
2024/01/06 05:02:37;;;;;;;24.45;13.10;;;;;;;;;;2054916;28;20042;-82
2024/01/06 05:03:58;;;;;;;20.80;13.32;;;;;;;;;;2061389;28;20034;-81
2024/01/06 05:05:19;;;;;;;19.25;12.93;;;;;;;;;;2050432;28;20039;-83
2024/01/06 05:06:40;;;;;;;21.70;13.73;;;;;;;;;;2051762;28;20046;-82
2024/01/06 05:08:01;;;;;;;20.50;13.20;;;;;;;;;;2058919;28;20099;-82
2024/01/06 05:09:22;;;;;;;23.60;14.40;;;;;;;;;;2067718;28;20022;-82
2024/01/06 05:10:44;;;;;;;19.25;13.35;;;;;;;;;;2066879;28;20026;-81
2024/01/06 05:12:05;;;;;;;20.67;13.65;;;;;;;;;;2063649;28;20088;-82
2024/01/06 05:13:26;;;;;;;19.83;14.05;;;;;;;;;;2070088;28;20469;-82
2024/01/06 05:14:47;;;;;;;21.98;13.77;;;;;;;;;;2063043;28;20093;-82
2024/01/06 05:16:08;;;;;;;22.10;14.10;;;;;;;;;;2063339;28;20037;-81
2024/01/06 05:17:29;;;;;;;22.02;14.05;;;;;;;;;;2062443;28;20494;-82
2024/01/06 05:18:50;;;;;;;20.25;13.45;;;;;;;;;;2064957;28;20030;-83
2024/01/06 05:20:11;;;;;;;21.63;13.00;;;;;;;;;;2065739;28;20045;-81
2024/01/06 05:21:32;;;;;;;21.58;13.70;;;;;;;;;;2064671;28;20490;-82
2024/01/06 05:22:53;;;;;;;24.95;14.65;;;;;;;;;;2061010;28;20034;-82
2024/01/06 05:24:14;;;;;;;20.63;14.13;;;;;;;;;;2061997;28;20030;-82
2024/01/06 05:25:34;;;;;;;19.23;12.77;;;;;;;;;;2060273;28;21289;-82
2024/01/06 05:26:55;;;;;;;19.45;11.50;;;;;;;;;;2059217;28;20050;-82
2024/01/06 05:28:16;;;;;;;22.65;13.93;;;;;;;;;;2066863;28;20038;-82
2024/01/06 05:29:37;;;;;;;21.75;14.18;;;;;;;;;;2058889;28;20042;-82
2024/01/06 05:30:58;;;;;;;20.67;13.60;;;;;;;;;;2059960;28;20034;-81
2024/01/06 05:32:20;;;;;;;21.10;13.65;;;;;;;;;;2060474;28;20030;-81
2024/01/06 05:33:41;;;;;;;21.00;13.57;;;;;;;;;;2062494;28;20077;-82
2024/01/06 05:35:01;;;;;;;22.05;14.00;;;;;;;;;;2061394;28;20026;-82
2024/01/06 05:36:22;;;;;;;20.95;12.88;;;;;;;;;;2060687;28;20027;-82
2024/01/06 05:37:43;;;;;;;18.05;13.02;;;;;;;;;;2066582;28;20049;-82
2024/01/06 05:39:04;;;;;;;23.10;13.68;;;;;;;;;;2062369;28;20417;-81
2024/01/06 05:40:25;;;;;;;20.80;13.82;;;;;;;;;;2057880;28;20046;-82
2024/01/06 05:41:46;;;;;;;22.58;13.95;;;;;;;;;;2069735;28;20033;-81
2024/01/06 05:43:07;;;;;;;20.60;14.52;;;;;;;;;;2064403;28;20030;-82
2024/01/06 05:44:28;;;;;;;22.60;13.85;;;;;;;;;;2070028;28;20037;-82
2024/01/06 05:45:48;;;;;;;21.67;13.38;;;;;;;;;;2063076;28;20030;-82
2024/01/06 05:47:09;;;;;;;19.02;12.05;;;;;;;;;;2057219;28;20030;-81
2024/01/06 05:48:30;;;;;;;19.08;12.98;;;;;;;;;;2067509;28;20138;-82
2024/01/06 05:49:51;;;;;;;19.17;12.35;;;;;;;;;;2063606;28;20030;-82
2024/01/06 05:51:12;;;;;;;19.17;12.63;;;;;;;;;;2063431;28;20030;-82
2024/01/06 05:52:33;;;;;;;21.33;13.20;;;;;;;;;;2071056;28;20044;-83
2024/01/06 05:53:54;;;;;;;20.33;12.95;;;;;;;;;;2061857;28;20038;-81
2024/01/06 05:55:15;;;;;;;19.42;12.65;;;;;;;;;;2063764;28;20077;-81
2024/01/06 05:56:36;;;;;;;21.13;13.77;;;;;;;;;;2061723;28;20407;-81
2024/01/06 05:57:57;;;;;;;22.48;13.15;;;;;;;;;;2062595;28;20046;-82
2024/01/06 05:59:18;;;;;;;19.48;13.30;;;;;;;;;;2062922;28;20052;-83
2024/01/06 06:00:39;;;;;;;19.40;12.88;;;;;;;;;;2062941;28;20457;-81
2024/01/06 06:02:00;;;;;;;19.05;12.70;;;;;;;;;;2069158;28;20053;-82
2024/01/06 06:03:21;;;;;;;20.90;12.80;;;;;;;;;;2063822;28;20030;-81
2024/01/06 06:04:42;;;;;;;21.40;13.15;;;;;;;;;;2067849;28;20030;-81
2024/01/06 06:06:03;;;;;;;18.52;12.93;;;;;;;;;;2062565;28;20498;-81
2024/01/06 06:07:24;;;;;;;19.92;13.77;;;;;;;;;;2058533;28;20038;-82
2024/01/06 06:08:45;;;;;;;22.58;13.65;;;;;;;;;;2063200;28;20486;-82
2024/01/06 06:10:07;;;;;;;20.40;13.95;;;;;;;;;;2069936;28;20377;-82
2024/01/06 06:11:28;;;;;;;22.50;13.48;;;;;;;;;;2070185;28;20038;-82
2024/01/06 06:12:49;;;;;;;21.02;13.07;;;;;;;;;;2063397;28;20030;-82
2024/01/06 06:14:10;;;;;;;18.42;12.75;;;;;;;;;;2059184;28;20394;-82
2024/01/06 06:15:30;;;;;;;20.33;13.75;;;;;;;;;;2060022;28;20092;-81
2024/01/06 06:16:51;;;;;;;20.10;13.05;;;;;;;;;;2063133;28;20065;-82
2024/01/06 06:18:12;;;;;;;19.33;12.68;;;;;;;;;;2069898;28;20425;-81
2024/01/06 06:19:33;;;;;;;19.98;13.25;;;;;;;;;;2061413;28;20177;-81
2024/01/06 06:20:54;;;;;;;24.45;14.73;;;;;;;;;;2065289;28;20038;-82
2024/01/06 06:22:15;;;;;;;21.90;13.60;;;;;;;;;;2068532;28;20042;-82
2024/01/06 06:23:36;;;;;;;20.88;13.45;;;;;;;;;;2064296;28;20031;-81
2024/01/06 06:24:57;;;;;;;22.67;14.18;;;;;;;;;;2063528;28;20394;-82
2024/01/06 06:26:18;;;;;;;20.15;13.32;;;;;;;;;;2074178;28;20108;-82
2024/01/06 06:27:39;;;;;;;22.73;13.65;;;;;;;;;;2066536;28;20035;-82
2024/01/06 06:29:01;;;;;;;19.30;12.93;;;;;;;;;;2061837;28;21279;-81
2024/01/06 06:30:22;;;;;;;22.98;14.20;;;;;;;;;;2069999;28;20022;-81
2024/01/06 06:31:44;;;;;;;22.73;14.30;;;;;;;;;;2076509;28;20030;-82
2024/01/06 06:33:05;;;;;;;22.40;13.55;;;;;;;;;;2065258;28;20030;-82
2024/01/06 06:34:26;;;;;;;19.67;12.82;;;;;;;;;;2069950;28;20026;-83
2024/01/06 06:35:47;;;;;;;19.90;12.60;;;;;;;;;;2068427;28;20442;-83
2024/01/06 06:37:08;;;;;;;20.55;12.38;;;;;;;;;;2075506;28;20084;-82
2024/01/06 06:38:29;;;;;;;20.27;13.13;;;;;;;;;;2073744;28;20038;-83
2024/01/06 06:39:50;;;;;;;23.08;13.50;;;;;;;;;;2074955;28;20037;-83
2024/01/06 06:41:11;;;;;;;21.17;13.95;;;;;;;;;;2065787;28;20562;-82
2024/01/06 06:42:32;;;;;;;22.13;13.70;;;;;;;;;;2072366;28;20041;-82
2024/01/06 06:43:53;;;;;;;22.38;13.57;;;;;;;;;;2074958;28;20030;-83
2024/01/06 06:45:14;;;;;;;19.90;13.27;;;;;;;;;;2065235;28;20460;-82
2024/01/06 06:46:35;;;;;;;23.15;14.10;;;;;;;;;;2072292;28;20092;-83
2024/01/06 06:47:55;;;;;;;22.45;13.38;;;;;;;;;;2063100;28;20475;-82
2024/01/06 06:49:16;;;;;;;21.58;13.75;;;;;;;;;;2063924;28;20034;-82
2024/01/06 06:50:37;;;;;;;30.05;14.73;;;;;;;;;;2064410;28;20027;-82
2024/01/06 06:51:58;;;;;;;24.95;14.35;;;;;;;;;;2063174;28;20137;-82
2024/01/06 06:53:19;;;;;;;26.20;15.05;;;;;;;;;;2058699;28;20451;-82
2024/01/06 06:54:40;;;;;;;25.52;15.52;;;;;;;;;;2059967;28;20046;-82
2024/01/06 06:56:01;;;;;;;22.45;14.48;;;;;;;;;;2061501;28;20046;-82
2024/01/06 06:57:22;;;;;;;22.85;14.57;;;;;;;;;;2066008;28;20106;-82
2024/01/06 06:58:43;;;;;;;23.58;14.63;;;;;;;;;;2064333;28;20537;-82
2024/01/06 07:00:04;;;;;;;24.55;14.88;;;;;;;;;;2071089;28;20034;-82
2024/01/06 07:01:25;;;;;;;20.93;14.23;;;;;;;;;;2065833;28;20027;-82
2024/01/06 07:02:46;;;;;;;22.52;14.65;;;;;;;;;;2062089;28;20435;-82
2024/01/06 07:04:07;;;;;;;23.63;14.88;;;;;;;;;;2069599;28;20104;-83
2024/01/06 07:05:28;;;;;;;23.85;14.18;;;;;;;;;;2069245;28;20026;-82
2024/01/06 07:06:49;;;;;;;22.17;14.65;;;;;;;;;;2068074;28;20018;-84
2024/01/06 07:08:10;;;;;;;21.10;14.20;;;;;;;;;;2073231;28;20089;-82
2024/01/06 07:09:31;;;;;;;19.23;13.77;;;;;;;;;;2066057;28;20371;-83
2024/01/06 07:10:52;;;;;;;23.83;13.98;;;;;;;;;;2064113;28;20053;-82
2024/01/06 07:12:13;;;;;;;21.42;14.15;;;;;;;;;;2068630;28;20091;-80
2024/01/06 07:13:34;;;;;;;23.25;14.40;;;;;;;;;;2063214;28;20023;-84
2024/01/06 07:14:55;;;;;;;25.08;14.65;;;;;;;;;;2070342;28;20084;-83
2024/01/06 07:16:16;;;;;;;26.08;15.05;;;;;;;;;;2063178;28;20485;-83
2024/01/06 07:17:38;;;;;;;20.33;13.85;;;;;;;;;;2066041;28;20556;-83
2024/01/06 07:18:58;;;;;;;;;;;;;;;;;;2063509;28;20042;-83
2024/01/06 07:20:19;;;;;;;23.02;14.02;;;;;;;;;;2063865;28;19910;-82
2024/01/06 07:21:40;;;;;;;18.52;13.15;;;;;;;;;;2063688;28;20038;-82
2024/01/06 07:23:03;;;;;;;20.55;13.27;;;;;;;;;;2065427;28;20034;-82
2024/01/06 07:24:24;;;;;;;21.23;13.57;;;;;;;;;;2063428;28;20046;-80
2024/01/06 07:25:44;;;;;;;20.40;13.77;;;;;;;;;;2063324;28;20035;-79
2024/01/06 07:27:05;;;;;;;24.95;13.15;;;;;;;;;;2063471;28;20034;-79
2024/01/06 07:28:26;;;;;;;22.55;14.05;;;;;;;;;;2062705;28;20034;-79
2024/01/06 07:29:47;;;;;;;22.27;13.80;;;;;;;;;;2072746;28;20504;-79
2024/01/06 07:31:08;;;;;;;24.10;14.40;;;;;;;;;;2063109;28;20026;-79
2024/01/06 07:32:31;;;;;;;21.50;13.98;;;;;;;;;;2067102;28;20081;-79
2024/01/06 07:33:51;;;;;;;21.45;14.82;;;;;;;;;;2066142;28;20038;-79
2024/01/06 07:35:13;;;;;;;23.50;14.40;;;;;;;;;;2062587;28;20093;-79
2024/01/06 07:36:34;;;;;;;25.05;14.70;;;;;;;;;;2064926;28;20441;-79
2024/01/06 07:37:55;;;;;;;24.33;15.00;;;;;;;;;;2063313;28;20034;-79
2024/01/06 07:39:16;;;;;;;21.55;14.70;;;;;;;;;;2068850;28;20038;-79
2024/01/06 07:40:37;;;;;;;26.98;15.57;;;;;;;;;;2062438;28;20103;-79
2024/01/06 07:41:58;;;;;;;23.40;14.70;;;;;;;;;;2062823;28;20046;-83
2024/01/06 07:43:19;;;;;;;22.98;14.90;;;;;;;;;;2061772;28;20030;-79
2024/01/06 07:44:40;;;;;;;28.50;16.10;;;;;;;;;;2070519;28;20030;-79
2024/01/06 07:46:01;;;;;;;22.73;15.10;;;;;;;;;;2066884;28;20482;-80
2024/01/06 07:47:21;;;;;;;28.48;16.27;;;;;;;;;;2062156;28;20034;-79
2024/01/06 07:48:42;;;;;;;24.63;14.40;;;;;;;;;;2067519;28;20046;-80
2024/01/06 07:50:05;;;;;;;21.27;14.70;;;;;;;;;;2068342;28;20121;-79
2024/01/06 07:51:25;;;;;;;;;;;;;;;;;;2067816;28;20047;-79
2024/01/06 07:52:46;;;;;;;22.58;14.38;;;;;;;;;;2063275;28;20324;-79